createdAt,value
2022-11-05T00:00:17.961Z,5.70
2022-11-05T00:03:05.879Z,5.70
2022-11-05T00:05:51.728Z,5.60
2022-11-05T00:08:37.110Z,5.70
2022-11-05T00:11:05.385Z,5.70
2022-11-05T00:13:50.683Z,5.70
2022-11-05T00:16:36.562Z,5.70
2022-11-05T00:19:07.584Z,5.60
2022-11-05T00:21:54.001Z,5.60
2022-11-05T00:24:40.105Z,5.60
2022-11-05T00:27:09.167Z,5.50
2022-11-05T00:29:37.406Z,5.50
2022-11-05T00:32:06.941Z,5.60
2022-11-05T00:34:35.072Z,5.60
2022-11-05T00:37:03.016Z,5.50
2022-11-05T00:39:31.251Z,5.50
2022-11-05T00:42:13.749Z,5.50
2022-11-05T00:44:59.529Z,5.40
2022-11-05T00:47:46.666Z,5.60
2022-11-05T00:50:16.185Z,5.70
2022-11-05T00:53:00.415Z,5.70
2022-11-05T00:55:34.666Z,5.50
2022-11-05T00:58:04.196Z,5.40
2022-11-05T01:00:33.378Z,5.50
2022-11-05T01:03:04.982Z,5.60
2022-11-05T01:05:34.902Z,5.60
2022-11-05T01:08:03.108Z,5.60
2022-11-05T01:10:31.191Z,5.50
2022-11-05T01:12:59.316Z,5.60
2022-11-05T01:15:27.386Z,5.60
2022-11-05T01:17:55.342Z,5.60
2022-11-05T01:20:24.724Z,5.60
2022-11-05T01:22:52.774Z,5.50
2022-11-05T01:25:20.906Z,5.40
2022-11-05T01:27:48.917Z,5.40
2022-11-05T01:30:17.517Z,5.40
2022-11-05T01:32:45.511Z,5.40
2022-11-05T01:35:16.370Z,5.40
2022-11-05T01:37:46.387Z,5.40
2022-11-05T01:40:19.427Z,5.40
2022-11-05T01:42:47.934Z,5.30
2022-11-05T01:45:19.187Z,5.40
2022-11-05T01:48:02.199Z,5.50
2022-11-05T01:50:34.669Z,5.50
2022-11-05T01:53:11.226Z,5.40
2022-11-05T01:55:45.472Z,5.40
2022-11-05T01:58:17.816Z,5.50
2022-11-05T02:00:46.047Z,5.70
2022-11-05T02:03:18.198Z,5.70
2022-11-05T02:05:47.351Z,5.70
2022-11-05T02:08:23.621Z,5.70
2022-11-05T02:10:52.156Z,5.70
2022-11-05T02:13:20.171Z,5.70
2022-11-05T02:15:59.283Z,5.70
2022-11-05T02:18:41.366Z,5.70
2022-11-05T02:21:33.884Z,5.60
2022-11-05T02:24:32.772Z,5.60
2022-11-05T02:27:13.795Z,5.80
2022-11-05T02:30:08.302Z,5.70
2022-11-05T02:32:49.834Z,5.70
2022-11-05T02:35:29.582Z,5.70
2022-11-05T02:38:05.164Z,5.60
2022-11-05T02:40:40.301Z,5.50
2022-11-05T02:43:18.501Z,5.50
2022-11-05T02:45:55.181Z,5.40
2022-11-05T02:48:32.948Z,5.30
2022-11-05T02:51:09.817Z,5.30
2022-11-05T02:53:44.964Z,5.20
2022-11-05T02:56:19.304Z,5.20
2022-11-05T02:58:47.396Z,5.20
2022-11-05T03:01:15.535Z,5.20
2022-11-05T03:03:48.469Z,5.20
2022-11-05T03:06:26.683Z,5.20
2022-11-05T03:09:14.428Z,5.30
2022-11-05T03:11:52.326Z,5.30
2022-11-05T03:14:25.682Z,5.40
2022-11-05T03:16:56.559Z,5.40
2022-11-05T03:19:35.077Z,5.50
2022-11-05T03:22:07.772Z,5.50
2022-11-05T03:24:40.313Z,5.50
2022-11-05T03:27:11.943Z,5.60
2022-11-05T03:29:44.139Z,5.60
2022-11-05T03:32:14.637Z,5.60
2022-11-05T03:34:47.449Z,5.70
2022-11-05T03:37:17.940Z,5.70
2022-11-05T03:39:50.519Z,5.80
2022-11-05T03:42:22.427Z,5.90
2022-11-05T03:44:54.145Z,6.00
2022-11-05T03:47:26.692Z,6.00
2022-11-05T03:50:05.789Z,6.10
2022-11-05T03:52:40.515Z,6.10
2022-11-05T03:55:08.830Z,6.10
2022-11-05T03:57:39.572Z,6.00
2022-11-05T04:00:10.410Z,5.90
2022-11-05T04:02:41.236Z,6.10
2022-11-05T04:05:12.494Z,6.10
2022-11-05T04:07:57.986Z,6.10
2022-11-05T04:10:43.816Z,6.20
2022-11-05T04:13:27.872Z,6.20
2022-11-05T04:16:15.514Z,6.20
2022-11-05T04:18:43.916Z,6.20
2022-11-05T04:21:30.961Z,6.20
2022-11-05T04:24:14.661Z,6.30
2022-11-05T04:26:45.407Z,6.30
2022-11-05T04:29:30.990Z,6.30
2022-11-05T04:31:59.044Z,6.30
2022-11-05T04:34:27.186Z,6.40
2022-11-05T04:36:56.629Z,6.50
2022-11-05T04:39:24.594Z,6.50
2022-11-05T04:41:52.548Z,6.60
2022-11-05T04:44:20.523Z,6.50
2022-11-05T04:46:48.552Z,6.50
2022-11-05T04:49:16.546Z,6.50
2022-11-05T04:51:44.991Z,6.60
2022-11-05T04:54:14.311Z,6.70
2022-11-05T04:56:42.288Z,6.70
2022-11-05T04:59:10.238Z,6.80
2022-11-05T05:01:38.402Z,6.80
2022-11-05T05:04:06.714Z,6.80
2022-11-05T05:06:34.992Z,6.80
2022-11-05T05:09:03.061Z,6.80
2022-11-05T05:11:32.951Z,6.70
2022-11-05T05:14:01.005Z,6.80
2022-11-05T05:16:31.231Z,6.70
2022-11-05T05:18:59.180Z,6.80
2022-11-05T05:21:46.903Z,6.80
2022-11-05T05:24:17.366Z,6.90
2022-11-05T05:26:48.579Z,7.00
2022-11-05T05:29:17.326Z,6.90
2022-11-05T05:31:45.477Z,6.90
2022-11-05T05:34:15.740Z,6.80
2022-11-05T05:36:43.690Z,6.90
2022-11-05T05:39:11.834Z,6.90
2022-11-05T05:41:40.046Z,7.00
2022-11-05T05:44:09.369Z,7.10
2022-11-05T05:46:40.581Z,7.10
2022-11-05T05:49:12.522Z,7.10
2022-11-05T05:51:41.050Z,7.00
2022-11-05T05:54:11.544Z,7.00
2022-11-05T05:56:39.539Z,7.00
2022-11-05T05:59:09.593Z,6.90
2022-11-05T06:01:38.099Z,6.80
2022-11-05T06:04:06.349Z,6.80
2022-11-05T06:06:34.377Z,6.90
2022-11-05T06:09:02.347Z,6.90
2022-11-05T06:11:30.306Z,6.90
2022-11-05T06:13:58.383Z,6.90
2022-11-05T06:16:28.491Z,6.80
2022-11-05T06:18:56.565Z,6.70
2022-11-05T06:21:24.591Z,6.70
2022-11-05T06:23:52.605Z,6.70
2022-11-05T06:26:21.077Z,6.80
2022-11-05T06:28:49.162Z,6.80
2022-11-05T06:31:17.191Z,6.80
2022-11-05T06:33:47.196Z,6.70
2022-11-05T06:36:16.386Z,6.80
2022-11-05T06:38:44.703Z,6.90
2022-11-05T06:41:12.790Z,7.00
2022-11-05T06:43:41.103Z,7.00
2022-11-05T06:46:09.180Z,7.00
2022-11-05T06:48:37.301Z,7.10
2022-11-05T06:51:07.708Z,7.10
2022-11-05T06:53:36.196Z,7.10
2022-11-05T06:56:06.778Z,7.10
2022-11-05T06:58:35.222Z,7.10
2022-11-05T07:01:04.131Z,7.10
2022-11-05T07:03:32.509Z,7.10
2022-11-05T07:06:01.821Z,7.00
2022-11-05T07:08:34.326Z,7.10
2022-11-05T07:11:02.749Z,7.10
2022-11-05T07:13:33.202Z,7.20
2022-11-05T07:16:01.304Z,7.20
2022-11-05T07:18:29.301Z,7.40
2022-11-05T07:20:57.271Z,7.40
2022-11-05T07:23:25.333Z,7.40
2022-11-05T07:25:54.756Z,7.40
2022-11-05T07:28:22.836Z,7.40
2022-11-05T07:30:50.785Z,7.50
2022-11-05T07:33:18.931Z,7.60
2022-11-05T07:35:46.903Z,7.60
2022-11-05T07:38:15.017Z,7.70
2022-11-05T07:40:43.099Z,7.80
2022-11-05T07:43:15.192Z,7.90
2022-11-05T07:45:44.112Z,8.00
2022-11-05T07:48:12.175Z,8.10
2022-11-05T07:50:40.179Z,8.30
2022-11-05T07:53:11.552Z,8.50
2022-11-05T07:55:44.011Z,8.50
2022-11-05T07:58:13.484Z,8.50
2022-11-05T08:00:41.634Z,8.70
2022-11-05T08:03:13.834Z,8.80
2022-11-05T08:05:44.589Z,9.20
2022-11-05T08:08:14.848Z,9.60
2022-11-05T08:10:43.448Z,9.90
2022-11-05T08:13:14.667Z,10.20
2022-11-05T08:15:43.319Z,10.30
2022-11-05T08:18:13.429Z,10.40
2022-11-05T08:20:42.655Z,10.50
2022-11-05T08:23:11.192Z,10.50
2022-11-05T08:25:39.732Z,10.30
2022-11-05T08:28:11.547Z,10.20
2022-11-05T08:30:41.117Z,10.10
2022-11-05T08:33:13.038Z,10.10
2022-11-05T08:35:41.359Z,10.00
2022-11-05T08:38:14.598Z,9.80
2022-11-05T08:40:45.380Z,9.70
2022-11-05T08:43:15.167Z,9.60
2022-11-05T08:45:44.618Z,9.60
2022-11-05T08:48:14.941Z,9.60
2022-11-05T08:50:43.904Z,9.60
2022-11-05T08:53:12.497Z,9.60
2022-11-05T08:55:41.116Z,9.70
2022-11-05T08:58:12.456Z,9.70
2022-11-05T09:00:41.064Z,9.70
2022-11-05T09:03:11.582Z,9.70
2022-11-05T09:05:41.647Z,9.70
2022-11-05T09:08:11.665Z,9.80
2022-11-05T09:10:39.776Z,9.80
2022-11-05T09:13:11.735Z,9.80
2022-11-05T09:15:43.993Z,9.70
2022-11-05T09:18:15.830Z,9.50
2022-11-05T09:20:44.201Z,9.50
2022-11-05T09:23:14.757Z,9.30
2022-11-05T09:25:43.007Z,9.10
2022-11-05T09:28:16.906Z,9.00
2022-11-05T09:30:47.152Z,9.00
2022-11-05T09:33:17.073Z,8.90
2022-11-05T09:35:45.235Z,8.80
2022-11-05T09:38:13.473Z,8.90
2022-11-05T09:40:49.997Z,8.90
2022-11-05T09:43:20.606Z,9.00
2022-11-05T09:45:53.067Z,9.10
2022-11-05T09:48:28.684Z,9.20
2022-11-05T09:50:58.191Z,9.20
2022-11-05T09:53:27.058Z,9.20
2022-11-05T09:55:57.844Z,9.30
2022-11-05T09:58:40.264Z,9.40
2022-11-05T10:01:16.672Z,9.40
2022-11-05T10:03:50.148Z,9.40
2022-11-05T10:06:20.616Z,9.50
2022-11-05T10:08:53.068Z,9.60
2022-11-05T10:11:29.177Z,9.70
2022-11-05T10:14:00.606Z,9.80
2022-11-05T10:16:32.600Z,9.80
2022-11-05T10:19:09.707Z,10.00
2022-11-05T10:22:04.932Z,10.00
2022-11-05T10:24:26.921Z,9.80
2022-11-05T10:26:56.772Z,9.80
2022-11-05T10:29:29.375Z,9.70
2022-11-05T10:31:58.819Z,9.80
2022-11-05T10:34:31.803Z,10.00
2022-11-05T10:36:59.885Z,10.00
2022-11-05T10:39:28.656Z,9.80
2022-11-05T10:42:13.544Z,9.80
2022-11-05T10:44:47.658Z,9.80
2022-11-05T10:47:44.691Z,10.00
2022-11-05T10:50:17.688Z,10.50
2022-11-05T10:52:58.089Z,10.70
2022-11-05T10:55:29.385Z,10.70
2022-11-05T10:58:09.123Z,10.80
2022-11-05T11:00:37.861Z,11.00
2022-11-05T11:03:07.576Z,10.80
2022-11-05T11:05:39.452Z,10.60
2022-11-05T11:08:23.665Z,10.70
2022-11-05T11:10:54.401Z,10.90
2022-11-05T11:13:24.326Z,10.80
2022-11-05T11:15:52.955Z,10.90
2022-11-05T11:18:32.425Z,10.80
2022-11-05T11:21:14.594Z,10.80
2022-11-05T11:23:43.949Z,10.80
2022-11-05T11:26:13.695Z,10.90
2022-11-05T11:28:47.179Z,11.10
2022-11-05T11:31:17.328Z,11.20
2022-11-05T11:33:47.694Z,11.50
2022-11-05T11:36:20.225Z,11.80
2022-11-05T11:38:48.807Z,11.80
2022-11-05T11:41:26.398Z,11.80
2022-11-05T11:43:57.425Z,11.40
2022-11-05T11:46:25.561Z,11.80
2022-11-05T11:48:53.636Z,12.20
2022-11-05T11:51:32.464Z,12.40
2022-11-05T11:54:01.607Z,12.20
2022-11-05T11:56:30.425Z,12.00
2022-11-05T11:59:02.576Z,11.80
2022-11-05T12:02:13.236Z,11.40
2022-11-05T12:04:59.830Z,11.30
2022-11-05T12:07:38.862Z,11.50
2022-11-05T12:10:20.849Z,11.40
2022-11-05T12:12:59.767Z,11.20
2022-11-05T12:15:41.995Z,11.00
2022-11-05T12:18:19.220Z,10.70
2022-11-05T12:21:05.535Z,10.40
2022-11-05T12:24:02.540Z,10.20
2022-11-05T12:26:39.180Z,10.20
2022-11-05T12:29:39.657Z,10.10
2022-11-05T12:32:29.867Z,10.10
2022-11-05T12:35:05.039Z,10.20
2022-11-05T12:37:50.394Z,10.30
2022-11-05T12:40:33.108Z,10.50
2022-11-05T12:43:12.215Z,10.90
2022-11-05T12:45:46.714Z,11.20
2022-11-05T12:48:35.790Z,11.30
2022-11-05T12:51:21.800Z,11.30
2022-11-05T12:54:00.636Z,11.50
2022-11-05T12:56:35.818Z,11.40
2022-11-05T12:59:12.233Z,11.10
2022-11-05T13:01:45.726Z,11.20
2022-11-05T13:04:21.220Z,11.20
2022-11-05T13:06:54.001Z,11.10
2022-11-05T13:09:26.737Z,11.00
2022-11-05T13:11:59.987Z,10.70
2022-11-05T13:14:29.189Z,10.60
2022-11-05T13:17:01.964Z,10.50
2022-11-05T13:19:33.882Z,10.50
2022-11-05T13:22:09.609Z,10.40
2022-11-05T13:24:40.727Z,10.40
2022-11-05T13:27:30.144Z,10.50
2022-11-05T13:30:03.755Z,10.40
2022-11-05T13:32:36.547Z,10.40
2022-11-05T13:35:07.480Z,10.30
2022-11-05T13:37:58.042Z,10.40
2022-11-05T13:40:39.070Z,10.50
2022-11-05T13:43:21.238Z,10.60
2022-11-05T13:46:13.947Z,10.50
2022-11-05T13:48:59.710Z,10.30
2022-11-05T13:51:54.477Z,10.20
2022-11-05T13:54:56.337Z,9.90
2022-11-05T13:57:52.440Z,10.00
2022-11-05T14:00:23.906Z,9.90
2022-11-05T14:02:55.902Z,10.00
2022-11-05T14:05:31.444Z,10.10
2022-11-05T14:08:02.250Z,10.10
2022-11-05T14:10:37.741Z,10.10
2022-11-05T14:13:21.631Z,10.10
2022-11-05T14:15:58.574Z,10.20
2022-11-05T14:18:42.004Z,10.10
2022-11-05T14:21:32.290Z,9.90
2022-11-05T14:24:01.408Z,9.80
2022-11-05T14:26:32.183Z,9.70
2022-11-05T14:29:40.628Z,9.60
2022-11-05T14:32:29.026Z,9.50
2022-11-05T14:35:03.996Z,9.40
2022-11-05T14:37:36.855Z,9.30
2022-11-05T14:40:28.301Z,9.30
2022-11-05T14:42:58.348Z,9.40
2022-11-05T14:45:30.633Z,9.20
2022-11-05T14:48:02.697Z,9.40
2022-11-05T14:50:37.808Z,9.50
2022-11-05T14:53:13.796Z,9.50
2022-11-05T14:55:44.301Z,9.40
2022-11-05T14:58:30.794Z,9.40
2022-11-05T15:00:59.514Z,9.40
2022-11-05T15:04:02.451Z,9.30
2022-11-05T15:06:35.597Z,9.30
2022-11-05T15:09:34.756Z,9.20
2022-11-05T15:12:15.472Z,9.00
2022-11-05T15:14:54.447Z,9.00
2022-11-05T15:17:26.619Z,9.00
2022-11-05T15:19:56.573Z,8.90
2022-11-05T15:22:32.069Z,8.80
2022-11-05T15:25:00.382Z,8.80
2022-11-05T15:27:46.845Z,8.70
2022-11-05T15:30:19.786Z,8.70
2022-11-05T15:32:48.193Z,8.70
2022-11-05T15:35:26.966Z,8.70
2022-11-05T15:38:01.822Z,8.70
2022-11-05T15:40:33.514Z,8.60
2022-11-05T15:43:17.408Z,8.60
2022-11-05T15:45:58.430Z,8.60
2022-11-05T15:48:26.607Z,8.60
2022-11-05T15:50:56.548Z,8.60
2022-11-05T15:53:51.494Z,8.60
2022-11-05T15:56:28.223Z,8.60
2022-11-05T15:59:02.080Z,8.50
2022-11-05T16:01:33.005Z,8.40
2022-11-05T16:04:09.640Z,8.50
2022-11-05T16:06:41.170Z,8.50
2022-11-05T16:09:20.333Z,8.40
2022-11-05T16:11:48.321Z,8.50
2022-11-05T16:14:18.180Z,8.50
2022-11-05T16:16:47.704Z,8.50
2022-11-05T16:19:42.429Z,8.50
2022-11-05T16:22:12.147Z,8.50
2022-11-05T16:24:40.283Z,8.50
2022-11-05T16:27:19.191Z,8.60
2022-11-05T16:29:51.524Z,8.60
2022-11-05T16:32:29.488Z,8.60
2022-11-05T16:35:00.419Z,8.50
2022-11-05T16:37:36.474Z,8.60
2022-11-05T16:40:10.692Z,8.60
2022-11-05T16:42:41.116Z,8.70
2022-11-05T16:45:13.912Z,8.60
2022-11-05T16:47:42.725Z,8.60
2022-11-05T16:50:19.673Z,8.60
2022-11-05T16:52:49.821Z,8.60
2022-11-05T16:55:18.802Z,8.50
2022-11-05T16:57:50.047Z,8.50
2022-11-05T17:00:20.711Z,8.60
2022-11-05T17:02:49.972Z,8.50
2022-11-05T17:05:22.195Z,8.50
2022-11-05T17:07:52.040Z,8.50
2022-11-05T17:10:20.481Z,8.40
2022-11-05T17:12:48.891Z,8.30
2022-11-05T17:15:22.806Z,8.30
2022-11-05T17:17:51.213Z,8.10
2022-11-05T17:20:38.298Z,8.10
2022-11-05T17:23:10.524Z,8.10
2022-11-05T17:25:38.944Z,8.20
2022-11-05T17:28:07.431Z,8.20
2022-11-05T17:30:35.874Z,8.20
2022-11-05T17:33:04.368Z,8.10
2022-11-05T17:35:32.754Z,8.00
2022-11-05T17:38:00.910Z,8.00
2022-11-05T17:40:30.400Z,8.00
2022-11-05T17:42:58.597Z,8.00
2022-11-05T17:45:26.602Z,8.00
2022-11-05T17:47:54.582Z,8.00
2022-11-05T17:50:22.685Z,8.10
2022-11-05T17:52:50.634Z,8.10
2022-11-05T17:55:18.686Z,8.10
2022-11-05T17:57:50.591Z,8.10
2022-11-05T18:00:20.836Z,8.20
2022-11-05T18:02:50.078Z,8.20
2022-11-05T18:05:19.194Z,8.30
2022-11-05T18:07:48.043Z,8.30
2022-11-05T18:10:16.671Z,8.30
2022-11-05T18:12:45.186Z,8.30
2022-11-05T18:15:15.423Z,8.30
2022-11-05T18:17:44.033Z,8.30
2022-11-05T18:20:18.679Z,8.30
2022-11-05T18:22:49.453Z,8.30
2022-11-05T18:25:18.189Z,8.30
2022-11-05T18:27:46.350Z,8.30
2022-11-05T18:30:16.045Z,8.30
2022-11-05T18:32:44.824Z,8.30
2022-11-05T18:35:13.424Z,8.30
2022-11-05T18:37:41.607Z,8.30
2022-11-05T18:40:10.184Z,8.20
2022-11-05T18:42:38.547Z,8.20
2022-11-05T18:45:07.948Z,8.20
2022-11-05T18:47:37.365Z,8.20
2022-11-05T18:50:06.723Z,8.20
2022-11-05T18:52:34.783Z,8.20
2022-11-05T18:55:02.778Z,8.20
2022-11-05T18:57:30.825Z,8.20
2022-11-05T18:59:58.941Z,8.20
2022-11-05T19:02:27.055Z,8.20
2022-11-05T19:07:44.631Z,8.20
2022-11-05T19:10:12.581Z,8.20
2022-11-05T19:12:40.636Z,8.20
2022-11-05T19:15:09.989Z,8.20
2022-11-05T19:17:38.163Z,8.10
2022-11-05T19:20:09.282Z,8.10
2022-11-05T19:22:37.355Z,8.10
2022-11-05T19:25:06.209Z,8.00
2022-11-05T19:27:36.625Z,8.00
2022-11-05T19:30:05.624Z,8.10
2022-11-05T19:32:33.592Z,8.00
2022-11-05T19:35:01.608Z,8.00
2022-11-05T19:37:30.949Z,8.10
2022-11-05T19:39:58.974Z,8.10
2022-11-05T19:42:27.881Z,8.10
2022-11-05T19:44:55.905Z,8.10
2022-11-05T19:47:23.895Z,8.00
2022-11-05T19:49:52.002Z,7.90
2022-11-05T19:52:20.089Z,7.90
2022-11-05T19:54:49.415Z,7.90
2022-11-05T19:57:17.512Z,7.90
2022-11-05T19:59:45.480Z,7.80
2022-11-05T20:02:16.271Z,7.80
2022-11-05T20:04:45.224Z,7.80
2022-11-05T20:07:13.295Z,7.90
2022-11-05T20:09:41.442Z,7.80
2022-11-05T20:12:10.836Z,7.80
2022-11-05T20:14:38.813Z,7.80
2022-11-05T20:17:06.765Z,7.70
2022-11-05T20:19:35.402Z,7.60
2022-11-05T20:22:03.425Z,7.50
2022-11-05T20:24:31.542Z,7.40
2022-11-05T20:26:59.687Z,7.40
2022-11-05T20:29:35.002Z,7.30
2022-11-05T20:32:04.619Z,7.30
2022-11-05T20:34:34.010Z,7.40
2022-11-05T20:37:02.369Z,7.40
2022-11-05T20:39:30.456Z,7.50
2022-11-05T20:42:00.390Z,7.30
2022-11-05T20:44:32.102Z,7.30
2022-11-05T20:47:00.194Z,7.30
2022-11-05T20:49:28.174Z,7.40
2022-11-05T20:51:56.359Z,7.30
2022-11-05T20:54:27.214Z,7.30
2022-11-05T20:56:55.328Z,7.40
2022-11-05T20:59:23.956Z,7.40
2022-11-05T21:01:53.785Z,7.40
2022-11-05T21:04:22.087Z,7.40
2022-11-05T21:06:50.050Z,7.40
2022-11-05T21:09:18.024Z,7.40
2022-11-05T21:12:03.395Z,7.50
2022-11-05T21:14:31.399Z,7.40
2022-11-05T21:17:00.746Z,7.40
2022-11-05T21:19:29.429Z,7.40
2022-11-05T21:21:57.489Z,7.40
2022-11-05T21:24:25.858Z,7.40
2022-11-05T21:26:53.953Z,7.50
2022-11-05T21:29:22.251Z,7.40
2022-11-05T21:31:51.117Z,7.40
2022-11-05T21:34:21.524Z,7.40
2022-11-05T21:36:52.618Z,7.40
2022-11-05T21:39:20.759Z,7.30
2022-11-05T21:41:48.693Z,7.30
2022-11-05T21:44:16.672Z,7.20
2022-11-05T21:46:44.628Z,7.10
2022-11-05T21:49:14.436Z,7.00
2022-11-05T21:52:01.484Z,6.90
2022-11-05T21:54:46.991Z,6.80
2022-11-05T21:57:34.883Z,6.70
2022-11-05T22:00:05.810Z,6.60
2022-11-05T22:02:33.940Z,6.60
2022-11-05T22:05:03.178Z,6.60
2022-11-05T22:07:35.432Z,6.50
2022-11-05T22:10:05.136Z,6.40
2022-11-05T22:12:33.181Z,6.40
2022-11-05T22:15:01.408Z,6.40
2022-11-05T22:17:29.483Z,6.40
2022-11-05T22:19:57.575Z,6.40
2022-11-05T22:22:25.517Z,6.30
2022-11-05T22:24:54.943Z,6.20
2022-11-05T22:27:22.961Z,6.10
2022-11-05T22:29:51.160Z,6.10
2022-11-05T22:32:19.219Z,6.00
2022-11-05T22:34:48.972Z,5.90
2022-11-05T22:37:17.094Z,5.90
2022-11-05T22:39:45.193Z,5.90
2022-11-05T22:42:15.022Z,5.80
2022-11-05T22:44:43.058Z,5.80
2022-11-05T22:47:11.073Z,5.70
2022-11-05T22:49:39.200Z,5.60
2022-11-05T22:52:07.673Z,5.60
2022-11-05T22:54:39.185Z,5.60
2022-11-05T22:57:08.545Z,5.50
2022-11-05T22:59:37.932Z,5.40
2022-11-05T23:02:09.760Z,5.20
2022-11-05T23:04:39.282Z,5.20
2022-11-05T23:07:27.872Z,5.10
2022-11-05T23:10:14.332Z,5.10
2022-11-05T23:12:44.399Z,5.10
2022-11-05T23:15:34.398Z,5.10
2022-11-05T23:18:20.343Z,5.10
2022-11-05T23:21:05.948Z,5.10
2022-11-05T23:23:51.308Z,5.10
2022-11-05T23:26:36.936Z,5.10
2022-11-05T23:29:06.027Z,5.10
2022-11-05T23:31:52.924Z,5.10
2022-11-05T23:34:20.917Z,4.90
2022-11-05T23:37:06.495Z,4.90
2022-11-05T23:39:39.664Z,4.90
2022-11-05T23:42:29.001Z,4.90
2022-11-05T23:45:14.990Z,4.80
2022-11-05T23:48:02.159Z,4.70
2022-11-05T23:50:35.695Z,4.60
2022-11-05T23:53:07.484Z,4.60
2022-11-05T23:55:35.723Z,4.70
2022-11-05T23:58:03.807Z,4.60
